Temvik, North Dakota
Current Conditions -  °F | °C
As of 2:35 AM on Saturday 25 Oct 2014 (Local Time) from K7L2 Reporting Station
Overcast Overcast  
Wind Chill: 41°   Ceiling: 12000
Heat Index: 45°   Visibility: 10mi
Dew Point: 34°   Wind: 6mph
Humidity: 66%   Direction: 270°W
Pressure: 30.08"   Gusts: NA
Location:  46.3287°N, 100.226°W
Report Text: K7L2 250735Z AUTO 27005KT 10SM OVC120 07/01 A3008 RMK AO2 PWINO PNO
Loading
Personal Weather Stations






























Interactive Weather Map
Tropical Storm Tracking
New forecast layout! Learn more

10-Day Weather Forecast

Advertisements
Track Severe Weather on mobile